Time;durP1;ratioP1;P1;durP2;ratioP2;P2;SDS_P1;SDS_P2;PMS_P1;PMS_P2;Temp;Humidity;BMP_temperature;BMP_pressure;BME280_temperature;BME280_humidity;BME280_pressure;Samples;Min_cycle;Max_cycle;Signal;HPM_P1;HPM_P2
2022/02/24 00:00:21;;;;;;;9.13;4.32;;;;;;;7.05;65.62;100348.50;1088341;54;20034;-80
2022/02/24 00:01:23;;;;;;;7.32;4.20;;;;;;;7.12;65.40;100347.06;1088427;54;20040;-79
2022/02/24 00:02:29;;;;;;;8.13;3.58;;;;;;;7.16;65.25;100346.72;1088395;54;20451;-79
2022/02/24 00:03:33;;;;;;;8.48;3.92;;;;;;;7.20;65.10;100342.00;1088141;54;20098;-79
2022/02/24 00:04:37;;;;;;;6.90;3.70;;;;;;;7.34;64.89;100340.97;1088031;54;20058;-78
2022/02/24 00:05:39;;;;;;;7.90;3.80;;;;;;;7.41;64.63;100338.69;1087950;54;20034;-80
2022/02/24 00:06:43;;;;;;;6.38;3.53;;;;;;;7.44;64.50;100343.78;1088046;54;20032;-80
2022/02/24 00:07:45;;;;;;;7.55;3.85;;;;;;;7.51;64.21;100339.69;1088143;54;20041;-80
2022/02/24 00:08:49;;;;;;;6.65;3.60;;;;;;;7.57;64.08;100336.53;1088129;54;20753;-79
2022/02/24 00:09:53;;;;;;;5.88;3.28;;;;;;;7.60;64.04;100338.97;1088225;54;20034;-79
2022/02/24 00:10:58;;;;;;;6.60;3.38;;;;;;;7.55;64.14;100346.47;1088400;54;20058;-80
2022/02/24 00:12:29;;;;;;;6.28;3.28;;;;;;;7.57;64.23;100333.88;1088412;54;20059;-79
2022/02/24 00:13:37;;;;;;;5.97;3.10;;;;;;;7.59;63.91;100331.97;1088487;54;20014;-80
2022/02/24 00:14:41;;;;;;;6.70;3.38;;;;;;;7.61;63.88;100324.72;1088292;54;20027;-80
2022/02/24 00:15:59;;;;;;;5.93;3.63;;;;;;;7.56;64.21;100320.72;1088407;54;20045;-81
2022/02/24 00:17:07;;;;;;;9.05;4.05;;;;;;;7.57;63.97;100325.91;1089133;39;20727;-81
2022/02/24 00:18:17;;;;;;;6.72;3.50;;;;;;;7.58;64.10;100330.25;1088489;54;20041;-80
2022/02/24 00:19:19;;;;;;;6.40;3.33;;;;;;;7.53;64.25;100332.44;1088464;54;20030;-79
2022/02/24 00:20:30;;;;;;;5.78;3.13;;;;;;;7.58;64.13;100330.25;1088540;54;20018;-81
2022/02/24 00:21:38;;;;;;;;;;;;;;;7.55;64.24;100330.53;1088644;54;20021;-81
2022/02/24 00:22:43;;;;;;;6.13;3.13;;;;;;;7.59;63.99;100331.13;1088644;46;19949;-81
2022/02/24 00:23:47;;;;;;;5.55;2.78;;;;;;;7.64;63.87;100319.16;1089808;39;20693;-81
2022/02/24 00:24:54;;;;;;;5.47;2.70;;;;;;;7.71;63.49;100324.00;1088265;54;20054;-81
2022/02/24 00:26:09;;;;;;;5.38;2.60;;;;;;;7.72;63.97;100325.69;1088137;54;20055;-80
2022/02/24 00:27:14;;;;;;;6.63;3.33;;;;;;;7.75;63.71;100313.00;1088156;54;20055;-81
2022/02/24 00:28:22;;;;;;;5.72;2.58;;;;;;;7.77;63.72;100315.53;1088163;54;20026;-80
2022/02/24 00:29:27;;;;;;;7.68;3.05;;;;;;;7.72;63.91;100315.06;1088171;54;20742;-81
2022/02/24 00:30:30;;;;;;;5.30;2.50;;;;;;;7.73;63.75;100322.91;1088114;54;20770;-81
2022/02/24 00:31:34;;;;;;;5.25;2.70;;;;;;;7.80;63.43;100317.97;1098361;39;20531;-81
2022/02/24 00:32:40;;;;;;;4.35;2.35;;;;;;;7.77;63.70;100308.41;1088203;54;20033;-81
2022/02/24 00:33:42;;;;;;;6.03;2.90;;;;;;;7.75;63.51;100312.13;1088146;54;20026;-81
2022/02/24 00:34:54;;;;;;;4.68;2.35;;;;;;;7.76;63.86;100314.69;1088296;54;20046;-81
2022/02/24 00:35:56;;;;;;;5.57;2.47;;;;;;;7.79;63.59;100317.09;1089547;46;20027;-80
2022/02/24 00:37:01;;;;;;;6.65;2.70;;;;;;;7.79;63.84;100316.25;1088206;54;20025;-81
2022/02/24 00:38:03;;;;;;;6.40;3.13;;;;;;;7.81;63.59;100312.50;1088136;54;20074;-80
2022/02/24 00:39:12;;;;;;;5.25;2.78;;;;;;;7.86;63.51;100312.13;1089122;39;20709;-80
2022/02/24 00:40:17;;;;;;;5.82;2.72;;;;;;;7.79;63.63;100316.25;1088244;54;20046;-79
2022/02/24 00:41:26;;;;;;;5.05;2.10;;;;;;;7.82;63.38;100316.03;1092714;39;20738;-82
2022/02/24 00:42:30;;;;;;;6.40;2.72;;;;;;;7.81;63.58;100314.34;1088157;54;20027;-80
2022/02/24 00:43:40;;;;;;;5.03;2.60;;;;;;;7.89;63.60;100311.03;1088170;54;21007;-80
2022/02/24 00:44:46;;;;;;;6.22;3.08;;;;;;;7.80;63.96;100309.97;1088128;54;20040;-81
2022/02/24 00:45:49;;;;;;;4.82;2.60;;;;;;;7.81;63.69;100317.00;1088168;54;21111;-79
2022/02/24 00:46:53;;;;;;;5.93;2.58;;;;;;;7.85;63.53;100315.75;1088185;54;20038;-81
2022/02/24 00:47:55;;;;;;;5.00;2.35;;;;;;;7.89;63.59;100314.56;1087982;54;20034;-81
2022/02/24 00:49:00;;;;;;;6.38;3.08;;;;;;;7.89;63.56;100300.41;1088223;54;20023;-82
2022/02/24 00:50:08;;;;;;;5.97;2.75;;;;;;;7.96;63.45;100304.28;1088147;54;20026;-79
2022/02/24 00:51:13;;;;;;;6.43;2.55;;;;;;;7.99;63.27;100312.00;1088266;54;20038;-80
2022/02/24 00:52:18;;;;;;;6.72;2.97;;;;;;;7.86;63.49;100305.97;1088187;54;20029;-82
2022/02/24 00:53:22;;;;;;;6.93;3.00;;;;;;;7.85;63.77;100306.94;1088210;54;20039;-81
2022/02/24 00:54:24;;;;;;;6.03;2.65;;;;;;;7.95;63.51;100300.75;1088299;54;20059;-81
2022/02/24 00:55:30;;;;;;;5.05;2.38;;;;;;;7.97;63.49;100295.34;1088247;54;20115;-79
2022/02/24 00:56:32;;;;;;;4.93;2.55;;;;;;;7.99;63.34;100306.69;1088193;54;20038;-80
2022/02/24 00:57:39;;;;;;;6.35;2.83;;;;;;;7.83;63.98;100293.78;1088245;54;20030;-80
2022/02/24 00:58:43;;;;;;;4.90;2.63;;;;;;;7.91;63.73;100303.78;1088172;54;20043;-81
2022/02/24 00:59:49;;;;;;;5.15;2.40;;;;;;;7.95;63.66;100306.09;1088303;54;20057;-80
2022/02/24 01:00:53;;;;;;;8.15;3.42;;;;;;;7.77;64.14;100304.88;1088232;54;20029;-80
2022/02/24 01:02:07;;;;;;;6.82;3.00;;;;;;;7.69;64.37;100296.66;1088248;54;20099;-80
2022/02/24 01:03:09;;;;;;;6.45;3.20;;;;;;;7.65;64.68;100301.38;1088298;54;20026;-79
2022/02/24 01:04:15;;;;;;;6.03;3.20;;;;;;;7.77;64.31;100300.41;1096301;39;20644;-80
2022/02/24 01:05:20;;;;;;;5.55;2.90;;;;;;;7.69;64.47;100297.50;1088166;54;20023;-80
2022/02/24 01:06:22;;;;;;;6.60;2.92;;;;;;;7.75;64.41;100302.34;1088282;54;20038;-80
2022/02/24 01:07:27;;;;;;;5.72;2.85;;;;;;;7.89;64.29;100295.94;1088336;54;20034;-80
2022/02/24 01:08:33;;;;;;;6.30;2.60;;;;;;;7.97;63.85;100300.66;1097793;46;20034;-80
2022/02/24 01:09:37;;;;;;;5.57;2.53;;;;;;;8.06;63.83;100301.72;1088117;54;20038;-80
2022/02/24 01:10:39;;;;;;;5.22;2.47;;;;;;;8.11;63.53;100284.41;1088259;54;20051;-80
2022/02/24 01:11:44;;;;;;;5.20;2.70;;;;;;;8.15;63.63;100285.00;1088230;54;20026;-80
2022/02/24 01:12:46;;;;;;;5.35;2.53;;;;;;;8.16;63.33;100286.72;1088087;54;20035;-81
2022/02/24 01:13:53;;;;;;;5.40;2.50;;;;;;;8.16;63.13;100285.88;1088209;54;20742;-80
2022/02/24 01:15:06;;;;;;;4.82;2.40;;;;;;;8.17;63.40;100283.09;1088318;54;20035;-80
2022/02/24 01:16:08;;;;;;;4.72;2.15;;;;;;;8.15;63.29;100290.34;1088251;54;20034;-80
2022/02/24 01:17:13;;;;;;;5.50;3.00;;;;;;;8.05;63.59;100284.06;1088204;54;20031;-80
2022/02/24 01:18:21;;;;;;;6.82;2.35;;;;;;;8.14;63.74;100282.47;1088217;54;20035;-81
2022/02/24 01:19:25;;;;;;;6.10;2.67;;;;;;;8.16;63.62;100281.38;1088178;54;20031;-81
2022/02/24 01:20:30;;;;;;;4.90;2.97;;;;;;;8.19;63.39;100273.16;1088169;54;20015;-78
2022/02/24 01:21:35;;;;;;;7.40;2.70;;;;;;;8.21;63.42;100273.88;1088277;54;20098;-80
2022/02/24 01:22:37;;;;;;;4.45;2.15;;;;;;;8.23;63.28;100279.91;1088258;54;20023;-79
2022/02/24 01:23:43;;;;;;;5.30;2.35;;;;;;;8.23;63.18;100282.56;1088162;54;20035;-79
2022/02/24 01:24:45;;;;;;;4.78;2.13;;;;;;;8.28;63.35;100271.56;1088225;54;20039;-79
2022/02/24 01:25:56;;;;;;;5.70;2.70;;;;;;;8.28;63.33;100269.75;1088309;54;20019;-79
2022/02/24 01:27:05;;;;;;;;;;;;;;;8.17;63.53;100269.75;1090296;46;20038;-81
2022/02/24 01:28:06;;;;;;;4.93;2.40;;;;;;;8.21;63.16;100267.69;1088001;54;19931;-80
2022/02/24 01:29:14;;;;;;;5.55;2.55;;;;;;;8.22;63.56;100264.06;1088067;54;20034;-81
2022/02/24 01:30:18;;;;;;;7.32;2.20;;;;;;;8.24;63.39;100268.28;1088151;54;20046;-80
2022/02/24 01:31:20;;;;;;;5.15;2.58;;;;;;;8.24;63.20;100262.13;1088156;54;20034;-80
2022/02/24 01:32:25;;;;;;;4.50;2.20;;;;;;;8.28;63.18;100256.44;1088182;54;20054;-79
2022/02/24 01:33:26;;;;;;;4.07;1.88;;;;;;;8.33;63.05;100257.84;1088176;54;20033;-80
2022/02/24 01:34:31;;;;;;;5.03;2.22;;;;;;;8.23;63.04;100261.28;1088179;54;20030;-80
2022/02/24 01:35:33;;;;;;;4.90;2.30;;;;;;;8.24;63.56;100264.78;1088223;54;20029;-79
2022/02/24 01:36:38;;;;;;;5.35;2.22;;;;;;;8.24;63.17;100262.13;1088327;46;20045;-80
2022/02/24 01:37:40;;;;;;;5.25;2.72;;;;;;;7.99;63.58;100252.59;1088189;54;20059;-79
2022/02/24 01:38:45;;;;;;;7.90;2.72;;;;;;;7.97;63.99;100252.75;1088173;54;20049;-80
2022/02/24 01:39:47;;;;;;;5.97;2.70;;;;;;;8.02;63.86;100263.84;1088142;54;20023;-79
2022/02/24 01:40:55;;;;;;;5.15;2.50;;;;;;;8.11;63.43;100256.97;1088136;54;20030;-79
2022/02/24 01:41:56;;;;;;;5.32;2.55;;;;;;;8.00;63.77;100246.31;1088277;54;20030;-79
2022/02/24 01:43:09;;;;;;;5.88;2.25;;;;;;;8.09;63.73;100248.25;1089540;46;20034;-79
2022/02/24 01:44:14;;;;;;;6.43;3.13;;;;;;;7.91;63.94;100248.75;1088295;54;20023;-79
2022/02/24 01:45:18;;;;;;;5.10;2.60;;;;;;;8.03;63.86;100244.25;1087959;54;20025;-80
2022/02/24 01:46:20;;;;;;;5.15;2.60;;;;;;;8.10;63.54;100249.94;1088172;54;20071;-80
2022/02/24 01:47:24;;;;;;;6.00;2.70;;;;;;;8.15;63.60;100242.41;1088011;54;20027;-80
2022/02/24 01:48:27;;;;;;;4.97;2.78;;;;;;;8.26;63.55;100249.53;1087727;54;20046;-79
2022/02/24 01:49:32;;;;;;;4.20;2.13;;;;;;;8.28;63.22;100247.56;1088121;54;20030;-79
2022/02/24 01:50:41;;;;;;;5.75;2.50;;;;;;;8.26;63.12;100242.38;1088020;54;20769;-79
2022/02/24 01:51:43;;;;;;;6.45;3.20;;;;;;;8.13;63.44;100241.69;1088190;54;20025;-80
2022/02/24 01:52:51;;;;;;;7.75;2.95;;;;;;;8.01;63.84;100248.00;1088261;54;20031;-80
2022/02/24 01:54:07;;;;;;;6.57;2.83;;;;;;;7.90;64.42;100239.06;1088354;54;20043;-79
2022/02/24 01:55:12;;;;;;;6.35;2.85;;;;;;;8.02;64.13;100233.75;1088255;54;20030;-80
2022/02/24 01:56:16;;;;;;;4.72;2.20;;;;;;;8.07;63.94;100234.19;1088278;54;20038;-82
2022/02/24 01:57:22;;;;;;;5.72;2.88;;;;;;;8.09;63.83;100232.25;1088310;54;20029;-80
2022/02/24 01:58:24;;;;;;;6.13;3.00;;;;;;;8.11;63.61;100235.66;1088186;54;20682;-79
2022/02/24 01:59:38;;;;;;;5.45;3.00;;;;;;;7.96;64.53;100232.41;1088348;54;20108;-81
2022/02/24 02:00:43;;;;;;;5.82;3.13;;;;;;;8.09;63.79;100238.41;1088197;54;20021;-80
2022/02/24 02:01:56;;;;;;;5.60;2.55;;;;;;;8.15;63.76;100231.75;1088262;54;20026;-81
2022/02/24 02:03:04;;;;;;;4.95;2.67;;;;;;;7.99;64.11;100220.66;1088336;54;20034;-81
2022/02/24 02:04:05;;;;;;;6.47;3.25;;;;;;;8.03;64.11;100228.28;1088351;54;20031;-81
2022/02/24 02:05:18;;;;;;;6.03;2.70;;;;;;;7.97;64.07;100229.63;1088315;54;20018;-80
2022/02/24 02:06:28;;;;;;;6.38;2.97;;;;;;;8.01;64.11;100224.06;1088342;54;20053;-82
2022/02/24 02:07:31;;;;;;;5.32;2.60;;;;;;;7.92;64.37;100223.81;1088148;54;20030;-80
2022/02/24 02:08:47;;;;;;;6.05;2.92;;;;;;;7.99;64.45;100210.84;1088574;47;20029;-81
2022/02/24 02:09:49;;;;;;;4.93;2.47;;;;;;;8.08;64.27;100214.59;1088247;54;20051;-79
2022/02/24 02:11:06;;;;;;;5.18;2.40;;;;;;;8.06;64.35;100227.19;1088183;54;20035;-81
2022/02/24 02:12:09;;;;;;;5.13;2.42;;;;;;;8.03;64.20;100216.78;1088275;54;20022;-81
2022/02/24 02:13:26;;;;;;;;;;;;;;;;;;;;;
2022/02/24 02:14:34;;;;;;;7.40;2.55;;;;;;;8.15;63.93;100215.78;1088300;54;20055;-80
2022/02/24 02:15:40;;;;;;;4.50;2.42;;;;;;;8.16;63.73;100217.47;1088320;54;20034;-82
2022/02/24 02:16:46;;;;;;;4.85;2.30;;;;;;;8.15;63.93;100209.63;1097964;39;20738;-79
2022/02/24 02:18:05;;;;;;;4.72;2.40;;;;;;;8.18;64.05;100204.88;1088112;54;20046;-79
2022/02/24 02:19:08;;;;;;;4.97;2.38;;;;;;;8.16;64.12;100200.66;1088174;54;20040;-79
2022/02/24 02:20:13;;;;;;;5.68;2.35;;;;;;;8.22;63.80;100208.97;1088271;54;20042;-80
2022/02/24 02:21:23;;;;;;;8.07;2.20;;;;;;;8.31;63.69;100198.56;1088243;54;20034;-81
2022/02/24 02:22:27;;;;;;;5.20;2.42;;;;;;;8.28;63.74;100195.16;1088252;54;20039;-80
2022/02/24 02:24:05;;;;;;;6.93;2.40;;;;;;;8.22;63.67;100187.66;1088267;54;20107;-80
2022/02/24 02:25:08;;;;;;;5.97;2.17;;;;;;;8.08;64.15;100185.31;1088412;54;20070;-81
2022/02/24 02:26:26;;;;;;;5.03;2.45;;;;;;;8.13;64.07;100196.41;1088383;54;20034;-81
2022/02/24 02:27:48;;;;;;;5.00;2.28;;;;;;;8.19;64.17;100187.94;1088708;47;20043;-80
2022/02/24 02:28:53;;;;;;;6.05;2.42;;;;;;;8.15;64.08;100185.66;1094449;47;20070;-82
2022/02/24 02:29:55;;;;;;;5.00;2.53;;;;;;;8.07;64.35;100186.28;1088452;54;20043;-81
2022/02/24 02:30:59;;;;;;;4.72;2.70;;;;;;;8.06;64.26;100184.56;1091272;47;20030;-80
2022/02/24 02:32:22;;;;;;;6.07;2.80;;;;;;;7.97;64.59;100181.69;1088251;54;20038;-80
2022/02/24 02:33:26;;;;;;;5.40;2.70;;;;;;;8.05;64.63;100188.19;1109280;39;20629;-81
2022/02/24 02:34:33;;;;;;;5.35;2.42;;;;;;;8.15;63.98;100172.34;1088180;54;20038;-80
2022/02/24 02:35:38;;;;;;;5.13;2.25;;;;;;;8.23;64.02;100167.22;1087963;54;20069;-80
2022/02/24 02:36:45;;;;;;;6.03;2.70;;;;;;;8.30;63.80;100164.91;1088198;54;20042;-80
2022/02/24 02:37:52;;;;;;;4.30;2.20;;;;;;;8.28;63.64;100157.88;1088245;54;20041;-80
2022/02/24 02:38:56;;;;;;;5.45;2.30;;;;;;;8.30;63.74;100165.72;1088237;54;20086;-80
2022/02/24 02:40:09;;;;;;;5.18;2.17;;;;;;;8.35;63.41;100166.22;1088435;54;20038;-81
2022/02/24 02:41:28;;;;;;;6.40;2.17;;;;;;;8.14;63.49;100168.81;1088618;54;20023;-79
2022/02/24 02:43:11;;;;;;;5.22;2.42;;;;;;;8.11;63.97;100167.25;1088599;54;20054;-81
2022/02/24 02:44:15;;;;;;;7.88;3.22;;;;;;;8.18;63.65;100162.28;1093904;46;20043;-80
2022/02/24 02:45:31;;;;;;;7.78;2.85;;;;;;;8.10;63.99;100170.88;1088504;54;20027;-80
2022/02/24 02:46:33;;;;;;;5.10;2.75;;;;;;;8.18;63.46;100159.63;1088569;54;20033;-80
2022/02/24 02:47:44;;;;;;;5.13;2.35;;;;;;;8.14;63.47;100158.16;1088515;54;20034;-79
2022/02/24 02:48:46;;;;;;;5.88;2.53;;;;;;;8.23;63.18;100152.06;1088248;54;20299;-80
2022/02/24 02:49:50;;;;;;;5.00;2.22;;;;;;;8.21;63.31;100156.72;1087895;54;20057;-79
2022/02/24 02:50:55;;;;;;;4.97;2.25;;;;;;;8.23;63.34;100146.75;1088309;54;20011;-78
2022/02/24 02:52:00;;;;;;;6.30;2.20;;;;;;;8.25;63.09;100147.47;1088037;54;20023;-79
2022/02/24 02:53:04;;;;;;;4.55;2.20;;;;;;;8.26;63.10;100143.84;1088327;54;20041;-79
2022/02/24 02:54:06;;;;;;;5.18;2.22;;;;;;;8.23;63.08;100141.41;1088357;54;20095;-79
2022/02/24 02:55:14;;;;;;;5.30;2.28;;;;;;;8.27;63.05;100137.53;1088408;54;20058;-79
2022/02/24 02:56:23;;;;;;;6.22;2.55;;;;;;;8.20;63.22;100136.38;1088973;39;20693;-79
2022/02/24 02:57:27;;;;;;;5.22;2.20;;;;;;;8.26;62.91;100133.19;1088492;54;20054;-80
2022/02/24 02:58:30;;;;;;;4.90;2.20;;;;;;;8.20;62.83;100133.72;1088425;54;20055;-79
2022/02/24 02:59:37;;;;;;;6.05;2.80;;;;;;;8.20;63.07;100133.72;1088432;54;20042;-80
2022/02/24 03:00:41;;;;;;;4.60;2.15;;;;;;;8.28;62.84;100136.56;1088440;54;20054;-80
2022/02/24 03:01:54;;;;;;;4.97;2.58;;;;;;;8.23;62.73;100137.94;1088421;54;20022;-80
2022/02/24 03:02:56;;;;;;;7.82;2.42;;;;;;;8.17;62.96;100133.13;1088507;54;20018;-80
2022/02/24 03:04:03;;;;;;;4.68;2.35;;;;;;;8.25;62.78;100128.81;1088321;54;20797;-80
2022/02/24 03:05:09;;;;;;;4.90;2.38;;;;;;;8.22;63.00;100126.41;1088493;54;20050;-80
2022/02/24 03:06:11;;;;;;;5.50;2.17;;;;;;;8.24;63.06;100127.13;1088389;54;20035;-79
2022/02/24 03:07:22;;;;;;;4.40;2.10;;;;;;;8.36;62.66;100121.75;1088453;54;20038;-79
2022/02/24 03:08:26;;;;;;;4.30;2.15;;;;;;;8.43;62.53;100130.91;1088465;54;20030;-80
2022/02/24 03:09:31;;;;;;;5.13;2.00;;;;;;;8.40;62.36;100126.69;1088428;54;20038;-80
2022/02/24 03:10:34;;;;;;;5.25;1.98;;;;;;;8.48;62.39;100123.44;1088358;54;20015;-80
2022/02/24 03:11:39;;;;;;;5.60;1.90;;;;;;;8.40;62.55;100123.22;1088403;54;20019;-82
2022/02/24 03:12:43;;;;;;;5.30;1.88;;;;;;;8.38;62.55;100122.47;1088330;54;20034;-79
2022/02/24 03:13:45;;;;;;;5.60;2.20;;;;;;;8.39;62.58;100121.50;1088341;54;20057;-79
2022/02/24 03:14:49;;;;;;;4.97;2.10;;;;;;;8.47;62.45;100116.41;1088356;54;20019;-81
2022/02/24 03:15:51;;;;;;;5.15;2.13;;;;;;;8.30;62.55;100117.78;1088300;54;20042;-80
2022/02/24 03:16:58;;;;;;;4.45;2.15;;;;;;;8.26;62.59;100122.53;1088452;54;20792;-80
2022/02/24 03:18:07;;;;;;;6.50;2.30;;;;;;;8.32;62.52;100115.84;1088509;54;20034;-80
2022/02/24 03:19:11;;;;;;;5.85;2.25;;;;;;;8.35;62.35;100120.94;1088432;54;20034;-79
2022/02/24 03:20:18;;;;;;;4.28;1.92;;;;;;;8.24;62.41;100112.97;1088487;54;20018;-81
2022/02/24 03:21:27;;;;;;;6.72;2.78;;;;;;;8.15;62.72;100117.25;1088542;54;20130;-80
2022/02/24 03:22:34;;;;;;;5.68;2.58;;;;;;;8.24;62.61;100111.16;1088368;54;20015;-81
2022/02/24 03:23:38;;;;;;;4.65;2.30;;;;;;;8.26;62.47;100111.03;1088418;54;20034;-80
2022/02/24 03:24:52;;;;;;;4.95;2.25;;;;;;;8.22;62.55;100113.09;1088369;54;20050;-80
2022/02/24 03:25:57;;;;;;;6.22;2.30;;;;;;;8.26;62.51;100114.53;1088242;54;20034;-80
2022/02/24 03:27:02;;;;;;;4.43;2.03;;;;;;;8.23;62.52;100106.78;1088832;39;20695;-79
2022/02/24 03:28:10;;;;;;;4.20;2.13;;;;;;;8.35;62.28;100104.94;1088259;54;20059;-81
2022/02/24 03:29:15;;;;;;;4.72;2.42;;;;;;;8.35;62.03;100109.41;1117563;31;20845;-79
2022/02/24 03:30:25;;;;;;;3.85;1.67;;;;;;;8.36;61.85;100105.78;1088402;54;20036;-80
2022/02/24 03:31:30;;;;;;;4.60;2.10;;;;;;;8.37;62.28;100108.31;1088403;54;20033;-79
2022/02/24 03:32:46;;;;;;;3.83;1.70;;;;;;;8.38;61.93;100110.00;1088465;54;20054;-80
2022/02/24 03:33:47;;;;;;;5.38;2.42;;;;;;;8.45;62.01;100107.66;1088566;54;20014;-78
2022/02/24 03:35:07;;;;;;;3.53;1.65;;;;;;;8.51;61.82;100099.19;1088517;54;20026;-80
2022/02/24 03:36:09;;;;;;;4.95;1.83;;;;;;;8.55;61.65;100099.75;1088500;54;20855;-80
2022/02/24 03:37:18;;;;;;;4.07;1.70;;;;;;;8.53;61.59;100105.22;1088307;54;20750;-80
2022/02/24 03:38:22;;;;;;;4.55;1.83;;;;;;;8.53;61.82;100107.88;1088378;54;20034;-81
2022/02/24 03:39:27;;;;;;;3.90;1.85;;;;;;;8.49;61.85;100095.81;1088244;54;20034;-79
2022/02/24 03:40:28;;;;;;;5.22;2.03;;;;;;;8.53;61.83;100099.06;1088283;54;20025;-79
2022/02/24 03:41:34;;;;;;;4.10;1.92;;;;;;;8.55;61.60;100100.63;1088020;54;20042;-79
2022/02/24 03:42:36;;;;;;;4.20;1.73;;;;;;;8.53;61.54;100099.06;1093042;39;20674;-81
2022/02/24 03:43:53;;;;;;;4.32;1.73;;;;;;;8.51;61.66;100103.69;1088292;54;20086;-80
2022/02/24 03:44:57;;;;;;;4.25;1.98;;;;;;;8.47;61.91;100095.09;1088425;54;20045;-80
2022/02/24 03:46:01;;;;;;;4.90;2.35;;;;;;;8.30;62.25;100100.97;1092899;39;20768;-80
2022/02/24 03:47:13;;;;;;;7.10;2.78;;;;;;;8.21;62.69;100102.56;1088332;54;20026;-80
2022/02/24 03:48:15;;;;;;;10.18;2.80;;;;;;;8.34;62.27;100097.06;1088386;54;20030;-80
2022/02/24 03:49:21;;;;;;;5.18;2.67;;;;;;;8.13;62.80;100097.88;1088407;54;20042;-80
2022/02/24 03:50:23;;;;;;;5.05;2.40;;;;;;;8.16;62.93;100096.81;1087647;54;20030;-79
2022/02/24 03:51:27;;;;;;;6.38;2.53;;;;;;;8.30;62.39;100093.00;1087976;54;20030;-79
2022/02/24 03:52:29;;;;;;;5.50;2.47;;;;;;;8.34;62.23;100092.59;1090375;39;20253;-79
2022/02/24 03:53:35;;;;;;;4.32;1.90;;;;;;;8.33;62.18;100087.38;1101153;31;20761;-79
2022/02/24 03:54:37;;;;;;;6.70;2.75;;;;;;;8.19;62.50;100088.53;1089360;46;20067;-80
2022/02/24 03:55:41;;;;;;;5.05;2.53;;;;;;;8.22;62.49;100094.44;1093212;39;20982;-81
2022/02/24 03:56:43;;;;;;;5.50;2.60;;;;;;;8.17;62.61;100090.50;1088102;54;20062;-80
2022/02/24 03:57:47;;;;;;;5.53;2.92;;;;;;;8.08;62.96;100086.78;1088072;54;20082;-80
2022/02/24 03:58:48;;;;;;;6.22;2.53;;;;;;;8.24;62.62;100081.03;1088079;54;20038;-81
2022/02/24 03:59:53;;;;;;;5.93;2.88;;;;;;;8.27;62.57;100076.28;1088408;54;20041;-82
2022/02/24 04:00:54;;;;;;;4.30;2.13;;;;;;;8.35;62.38;100077.44;1088279;54;20038;-80
2022/02/24 04:01:58;;;;;;;5.72;2.25;;;;;;;8.27;62.37;100076.28;1088208;54;20027;-80
2022/02/24 04:03:00;;;;;;;5.28;2.33;;;;;;;8.14;62.85;100085.44;1088287;54;20769;-81
2022/02/24 04:04:05;;;;;;;5.47;2.53;;;;;;;8.07;62.99;100091.28;1088304;54;20021;-79
2022/02/24 04:05:09;;;;;;;5.68;2.75;;;;;;;7.82;63.97;100084.47;1088388;54;20734;-80
2022/02/24 04:06:16;;;;;;;6.43;2.90;;;;;;;8.00;63.36;100078.59;1088219;54;20011;-80
2022/02/24 04:07:18;;;;;;;6.03;2.67;;;;;;;7.81;64.01;100080.13;1088186;54;20778;-79
2022/02/24 04:08:24;;;;;;;4.72;2.72;;;;;;;7.81;64.22;100072.13;1088253;54;20058;-80
2022/02/24 04:09:35;;;;;;;6.47;3.75;;;;;;;7.92;64.24;100072.09;1088464;54;20029;-81
2022/02/24 04:10:39;;;;;;;6.80;3.25;;;;;;;8.06;63.71;100064.75;1092309;39;20673;-80
2022/02/24 04:12:00;;;;;;;5.55;2.50;;;;;;;8.01;63.55;100058.97;1088365;54;20026;-80
2022/02/24 04:13:05;;;;;;;5.75;2.40;;;;;;;8.08;63.33;100066.31;1088396;54;20014;-81
2022/02/24 04:14:11;;;;;;;5.47;2.83;;;;;;;8.07;63.59;100061.13;1093107;46;20022;-81
2022/02/24 04:15:15;;;;;;;5.32;2.33;;;;;;;8.16;63.13;100057.69;1088317;54;20030;-81
2022/02/24 04:16:21;;;;;;;4.63;2.33;;;;;;;8.08;63.19;100057.50;1088121;54;20759;-81
2022/02/24 04:17:25;;;;;;;6.28;2.50;;;;;;;8.05;63.35;100058.59;1088326;54;20035;-80
2022/02/24 04:18:29;;;;;;;9.88;3.03;;;;;;;8.00;63.60;100058.13;1088431;54;20022;-80
2022/02/24 04:19:34;;;;;;;6.75;3.22;;;;;;;8.07;63.61;100050.47;1094747;39;20595;-80
2022/02/24 04:20:35;;;;;;;10.18;3.75;;;;;;;7.96;63.92;100054.03;1094307;39;20646;-79
2022/02/24 04:21:39;;;;;;;6.95;2.83;;;;;;;7.78;64.13;100053.75;1088283;54;20026;-79
2022/02/24 04:22:43;;;;;;;6.53;2.88;;;;;;;7.85;64.39;100062.06;1091834;46;20065;-79
2022/02/24 04:23:47;;;;;;;5.60;2.72;;;;;;;7.86;64.17;100059.28;1088140;54;20030;-80
2022/02/24 04:24:53;;;;;;;7.32;2.78;;;;;;;7.83;64.19;100056.03;1088447;46;20057;-80
2022/02/24 04:25:57;;;;;;;4.85;2.60;;;;;;;7.84;64.16;100058.53;1087998;54;20031;-79
2022/02/24 04:26:59;;;;;;;6.45;2.67;;;;;;;7.95;63.94;100055.84;1087997;54;20049;-79
2022/02/24 04:28:03;;;;;;;6.97;2.95;;;;;;;8.02;63.67;100058.00;1087947;54;20776;-81
2022/02/24 04:29:04;;;;;;;6.03;2.83;;;;;;;8.02;63.71;100060.69;1087929;54;20057;-79
2022/02/24 04:30:09;;;;;;;4.95;2.45;;;;;;;8.13;63.47;100055.28;1087971;54;20030;-80
2022/02/24 04:31:13;;;;;;;4.90;2.55;;;;;;;7.94;63.57;100050.66;1087779;54;20035;-80
2022/02/24 04:32:15;;;;;;;5.13;2.85;;;;;;;8.03;63.74;100065.03;1087485;54;20038;-79
2022/02/24 04:33:19;;;;;;;4.60;2.15;;;;;;;8.05;63.65;100052.41;1087862;54;20019;-79
2022/02/24 04:34:21;;;;;;;4.45;2.63;;;;;;;8.14;63.55;100059.63;1088360;39;20965;-80
2022/02/24 04:35:25;;;;;;;5.72;2.53;;;;;;;8.22;63.32;100054.50;1087942;54;20650;-80
2022/02/24 04:36:29;;;;;;;5.78;2.42;;;;;;;8.27;62.92;100046.97;1089082;46;20686;-80
2022/02/24 04:37:30;;;;;;;5.50;2.40;;;;;;;8.28;62.86;100046.00;1087907;54;20054;-80
2022/02/24 04:38:35;;;;;;;5.18;2.63;;;;;;;8.15;63.27;100049.84;1087937;54;20659;-79
2022/02/24 04:39:36;;;;;;;5.35;2.40;;;;;;;8.15;63.44;100049.84;1087996;54;20027;-80
2022/02/24 04:40:49;;;;;;;5.13;2.65;;;;;;;7.89;64.01;100045.72;1087981;54;20038;-79
2022/02/24 04:41:50;;;;;;;6.35;2.58;;;;;;;7.97;63.98;100053.91;1089669;46;20034;-79
2022/02/24 04:42:56;;;;;;;5.82;2.60;;;;;;;7.99;63.67;100044.94;1087937;54;20031;-79
2022/02/24 04:43:57;;;;;;;5.68;2.70;;;;;;;8.06;63.76;100038.13;1088211;54;20019;-79
2022/02/24 04:45:02;;;;;;;4.70;2.25;;;;;;;8.09;63.78;100037.88;1088182;54;20056;-80
2022/02/24 04:46:09;;;;;;;6.18;2.58;;;;;;;7.97;63.68;100048.59;1088198;54;20038;-80
2022/02/24 04:47:18;;;;;;;6.38;2.70;;;;;;;8.14;63.34;100041.00;1088295;54;20041;-80
2022/02/24 04:49:44;;;;;;;4.90;2.22;;;;;;;8.17;63.10;100040.75;1088104;54;20026;-81
2022/02/24 04:50:45;;;;;;;5.43;2.40;;;;;;;8.21;63.01;100030.66;1087901;54;20053;-80
2022/02/24 04:51:49;;;;;;;5.22;2.17;;;;;;;8.14;63.13;100033.00;1087870;46;20041;-81
2022/02/24 04:52:54;;;;;;;7.43;2.92;;;;;;;8.18;63.38;100034.44;1087553;54;20034;-80
2022/02/24 04:54:01;;;;;;;6.60;2.72;;;;;;;7.99;63.42;100035.13;1088226;54;20026;-80
2022/02/24 04:55:03;;;;;;;6.53;2.70;;;;;;;8.14;63.51;100021.53;1088299;54;20015;-80
2022/02/24 04:56:10;;;;;;;5.13;2.50;;;;;;;8.08;63.39;100023.72;1089702;46;20030;-80
2022/02/24 04:57:14;;;;;;;5.45;2.50;;;;;;;8.16;63.36;100025.75;1088052;54;20082;-82
2022/02/24 04:58:23;;;;;;;5.03;2.40;;;;;;;8.21;62.91;100025.34;1088173;54;20026;-80
2022/02/24 04:59:24;;;;;;;4.70;2.40;;;;;;;8.23;63.00;100021.56;1088267;54;20071;-81
2022/02/24 05:00:35;;;;;;;5.07;2.42;;;;;;;8.10;63.19;100019.09;1088297;54;20058;-80
2022/02/24 05:01:38;;;;;;;4.85;2.33;;;;;;;8.13;63.25;100018.00;1088228;54;20055;-81
2022/02/24 05:02:47;;;;;;;4.80;2.42;;;;;;;8.15;63.41;100015.22;1088058;54;20022;-80
2022/02/24 05:03:51;;;;;;;4.53;2.25;;;;;;;8.04;63.61;100018.78;1088330;54;20059;-80
2022/02/24 05:05:01;;;;;;;6.50;2.70;;;;;;;8.01;63.52;100008.41;1090516;39;20669;-80
2022/02/24 05:06:05;;;;;;;5.90;2.88;;;;;;;8.11;63.27;100006.66;1088074;54;20023;-79
2022/02/24 05:07:09;;;;;;;4.72;2.25;;;;;;;8.19;63.38;100008.66;1088269;54;20026;-79
2022/02/24 05:08:11;;;;;;;5.47;2.33;;;;;;;8.16;62.99;100004.44;1088229;54;20038;-80
2022/02/24 05:09:25;;;;;;;4.03;2.00;;;;;;;8.20;63.07;99995.22;1088321;54;20096;-80
2022/02/24 05:10:32;;;;;;;4.68;2.10;;;;;;;8.14;63.24;99995.72;1088254;54;20730;-80
2022/02/24 05:11:37;;;;;;;4.75;2.20;;;;;;;8.20;62.92;99997.03;1088330;54;20049;-81
2022/02/24 05:12:42;;;;;;;4.45;2.05;;;;;;;8.22;62.89;99992.41;1088193;54;20090;-80